sensor_id;sensor_type;location;lat;lon;timestamp;P1;durP1;ratioP1;P2;durP2;ratioP2
22502;SDS011;11418;48.118;9.992;2022-08-21T00:01:41;9.63;;;5.53;;
22502;SDS011;11418;48.118;9.992;2022-08-21T00:05:43;9.32;;;5.45;;
22502;SDS011;11418;48.118;9.992;2022-08-21T00:09:49;12.50;;;5.88;;
22502;SDS011;11418;48.118;9.992;2022-08-21T00:13:50;10.95;;;6.00;;
22502;SDS011;11418;48.118;9.992;2022-08-21T00:17:50;10.05;;;6.30;;
22502;SDS011;11418;48.118;9.992;2022-08-21T00:21:51;11.45;;;6.18;;
22502;SDS011;11418;48.118;9.992;2022-08-21T00:25:53;12.52;;;5.75;;
22502;SDS011;11418;48.118;9.992;2022-08-21T00:29:54;11.95;;;6.00;;
22502;SDS011;11418;48.118;9.992;2022-08-21T00:33:55;11.70;;;6.43;;
22502;SDS011;11418;48.118;9.992;2022-08-21T00:37:56;12.77;;;6.63;;
22502;SDS011;11418;48.118;9.992;2022-08-21T00:41:56;13.60;;;6.50;;
22502;SDS011;11418;48.118;9.992;2022-08-21T00:45:57;12.65;;;7.03;;
22502;SDS011;11418;48.118;9.992;2022-08-21T00:50:00;15.30;;;7.57;;
22502;SDS011;11418;48.118;9.992;2022-08-21T00:54:01;13.57;;;7.18;;
22502;SDS011;11418;48.118;9.992;2022-08-21T00:58:04;13.80;;;6.63;;
22502;SDS011;11418;48.118;9.992;2022-08-21T01:02:08;14.77;;;7.18;;
22502;SDS011;11418;48.118;9.992;2022-08-21T01:06:09;14.40;;;8.30;;
22502;SDS011;11418;48.118;9.992;2022-08-21T01:10:09;16.52;;;7.82;;
22502;SDS011;11418;48.118;9.992;2022-08-21T01:14:12;15.80;;;6.50;;
22502;SDS011;11418;48.118;9.992;2022-08-21T01:18:15;16.15;;;6.60;;
22502;SDS011;11418;48.118;9.992;2022-08-21T01:22:16;12.63;;;6.60;;
22502;SDS011;11418;48.118;9.992;2022-08-21T01:26:19;14.73;;;7.18;;
22502;SDS011;11418;48.118;9.992;2022-08-21T01:30:25;13.50;;;6.55;;
22502;SDS011;11418;48.118;9.992;2022-08-21T01:34:27;16.38;;;7.10;;
22502;SDS011;11418;48.118;9.992;2022-08-21T01:38:28;11.40;;;6.32;;
22502;SDS011;11418;48.118;9.992;2022-08-21T01:42:29;13.55;;;6.10;;
22502;SDS011;11418;48.118;9.992;2022-08-21T01:46:29;10.60;;;6.18;;
22502;SDS011;11418;48.118;9.992;2022-08-21T01:50:30;13.65;;;5.57;;
22502;SDS011;11418;48.118;9.992;2022-08-21T01:54:31;10.50;;;5.65;;
22502;SDS011;11418;48.118;9.992;2022-08-21T01:58:32;12.55;;;5.03;;
22502;SDS011;11418;48.118;9.992;2022-08-21T02:02:33;10.90;;;5.57;;
22502;SDS011;11418;48.118;9.992;2022-08-21T02:06:34;12.38;;;5.90;;
22502;SDS011;11418;48.118;9.992;2022-08-21T02:10:35;14.13;;;5.63;;
22502;SDS011;11418;48.118;9.992;2022-08-21T02:14:35;13.07;;;5.88;;
22502;SDS011;11418;48.118;9.992;2022-08-21T02:18:36;11.85;;;5.57;;
22502;SDS011;11418;48.118;9.992;2022-08-21T02:22:37;9.73;;;5.18;;
22502;SDS011;11418;48.118;9.992;2022-08-21T02:26:38;7.15;;;4.30;;
22502;SDS011;11418;48.118;9.992;2022-08-21T02:30:40;7.15;;;4.28;;
22502;SDS011;11418;48.118;9.992;2022-08-21T02:34:43;49.50;;;6.07;;
22502;SDS011;11418;48.118;9.992;2022-08-21T02:38:44;11.57;;;4.72;;
22502;SDS011;11418;48.118;9.992;2022-08-21T02:42:44;8.43;;;4.55;;
22502;SDS011;11418;48.118;9.992;2022-08-21T02:46:45;132.50;;;8.43;;
22502;SDS011;11418;48.118;9.992;2022-08-21T02:50:47;23.65;;;7.13;;
22502;SDS011;11418;48.118;9.992;2022-08-21T02:54:51;16.23;;;7.15;;
22502;SDS011;11418;48.118;9.992;2022-08-21T02:58:52;15.02;;;7.50;;
22502;SDS011;11418;48.118;9.992;2022-08-21T03:02:52;13.40;;;6.63;;
22502;SDS011;11418;48.118;9.992;2022-08-21T03:06:55;9.10;;;5.25;;
22502;SDS011;11418;48.118;9.992;2022-08-21T03:10:56;14.15;;;5.50;;
22502;SDS011;11418;48.118;9.992;2022-08-21T03:14:57;14.63;;;5.30;;
22502;SDS011;11418;48.118;9.992;2022-08-21T03:18:58;15.23;;;6.00;;
22502;SDS011;11418;48.118;9.992;2022-08-21T03:22:59;9.13;;;5.35;;
22502;SDS011;11418;48.118;9.992;2022-08-21T03:27:01;14.50;;;6.22;;
22502;SDS011;11418;48.118;9.992;2022-08-21T03:31:01;12.63;;;5.60;;
22502;SDS011;11418;48.118;9.992;2022-08-21T03:35:02;11.73;;;5.20;;
22502;SDS011;11418;48.118;9.992;2022-08-21T03:39:04;16.70;;;6.88;;
22502;SDS011;11418;48.118;9.992;2022-08-21T03:43:05;12.50;;;6.35;;
22502;SDS011;11418;48.118;9.992;2022-08-21T03:47:08;12.43;;;6.03;;
22502;SDS011;11418;48.118;9.992;2022-08-21T03:51:09;13.55;;;5.90;;
22502;SDS011;11418;48.118;9.992;2022-08-21T03:55:10;9.68;;;5.22;;
22502;SDS011;11418;48.118;9.992;2022-08-21T03:59:10;9.18;;;4.93;;
22502;SDS011;11418;48.118;9.992;2022-08-21T04:03:11;9.98;;;5.35;;
22502;SDS011;11418;48.118;9.992;2022-08-21T04:07:12;11.23;;;5.28;;
22502;SDS011;11418;48.118;9.992;2022-08-21T04:11:13;12.25;;;5.03;;
22502;SDS011;11418;48.118;9.992;2022-08-21T04:15:14;62.42;;;7.35;;
22502;SDS011;11418;48.118;9.992;2022-08-21T04:19:15;41.03;;;6.50;;
22502;SDS011;11418;48.118;9.992;2022-08-21T04:23:16;125.95;;;6.93;;
22502;SDS011;11418;48.118;9.992;2022-08-21T04:27:20;57.75;;;5.90;;
22502;SDS011;11418;48.118;9.992;2022-08-21T04:31:20;26.73;;;5.10;;
22502;SDS011;11418;48.118;9.992;2022-08-21T04:35:22;28.73;;;5.57;;
22502;SDS011;11418;48.118;9.992;2022-08-21T04:39:23;12.38;;;5.38;;
22502;SDS011;11418;48.118;9.992;2022-08-21T04:43:24;17.30;;;5.68;;
22502;SDS011;11418;48.118;9.992;2022-08-21T04:47:25;13.20;;;6.03;;
22502;SDS011;11418;48.118;9.992;2022-08-21T04:51:30;13.85;;;6.18;;
22502;SDS011;11418;48.118;9.992;2022-08-21T04:55:34;12.50;;;5.82;;
22502;SDS011;11418;48.118;9.992;2022-08-21T04:59:38;18.85;;;5.80;;
22502;SDS011;11418;48.118;9.992;2022-08-21T05:03:42;15.80;;;6.10;;
22502;SDS011;11418;48.118;9.992;2022-08-21T05:07:44;12.90;;;5.65;;
22502;SDS011;11418;48.118;9.992;2022-08-21T05:11:45;13.45;;;5.68;;
22502;SDS011;11418;48.118;9.992;2022-08-21T05:15:46;11.15;;;5.32;;
22502;SDS011;11418;48.118;9.992;2022-08-21T05:19:46;20.23;;;5.50;;
22502;SDS011;11418;48.118;9.992;2022-08-21T05:23:47;35.72;;;6.05;;
22502;SDS011;11418;48.118;9.992;2022-08-21T05:27:47;10.63;;;5.45;;
22502;SDS011;11418;48.118;9.992;2022-08-21T05:31:48;14.68;;;5.93;;
22502;SDS011;11418;48.118;9.992;2022-08-21T05:35:50;17.75;;;5.68;;
22502;SDS011;11418;48.118;9.992;2022-08-21T05:39:52;10.38;;;5.57;;
22502;SDS011;11418;48.118;9.992;2022-08-21T05:43:52;10.80;;;5.93;;
22502;SDS011;11418;48.118;9.992;2022-08-21T05:47:53;12.43;;;6.43;;
22502;SDS011;11418;48.118;9.992;2022-08-21T05:51:54;88.20;;;11.60;;
22502;SDS011;11418;48.118;9.992;2022-08-21T05:55:54;8.40;;;6.22;;
22502;SDS011;11418;48.118;9.992;2022-08-21T05:59:55;4.72;;;4.15;;
22502;SDS011;11418;48.118;9.992;2022-08-21T06:03:55;3.50;;;3.20;;
22502;SDS011;11418;48.118;9.992;2022-08-21T06:07:56;4.07;;;2.88;;
22502;SDS011;11418;48.118;9.992;2022-08-21T06:11:56;3.13;;;2.83;;
22502;SDS011;11418;48.118;9.992;2022-08-21T06:16:05;4.13;;;2.65;;
22502;SDS011;11418;48.118;9.992;2022-08-21T06:20:10;3.13;;;2.83;;
22502;SDS011;11418;48.118;9.992;2022-08-21T06:24:11;3.58;;;3.28;;
22502;SDS011;11418;48.118;9.992;2022-08-21T06:28:11;4.05;;;2.75;;
22502;SDS011;11418;48.118;9.992;2022-08-21T06:32:12;3.03;;;2.55;;
22502;SDS011;11418;48.118;9.992;2022-08-21T06:36:14;2.72;;;2.30;;
22502;SDS011;11418;48.118;9.992;2022-08-21T06:40:15;3.20;;;2.17;;
22502;SDS011;11418;48.118;9.992;2022-08-21T06:44:16;1.90;;;1.80;;
22502;SDS011;11418;48.118;9.992;2022-08-21T06:48:17;2.03;;;1.85;;
22502;SDS011;11418;48.118;9.992;2022-08-21T06:52:18;1.70;;;1.60;;
22502;SDS011;11418;48.118;9.992;2022-08-21T06:56:19;1.70;;;1.60;;
22502;SDS011;11418;48.118;9.992;2022-08-21T07:00:20;2.08;;;1.70;;
22502;SDS011;11418;48.118;9.992;2022-08-21T07:04:21;2.78;;;1.92;;
22502;SDS011;11418;48.118;9.992;2022-08-21T07:08:21;1.90;;;1.70;;
22502;SDS011;11418;48.118;9.992;2022-08-21T07:12:22;2.35;;;1.70;;
22502;SDS011;11418;48.118;9.992;2022-08-21T07:16:23;2.00;;;1.70;;
22502;SDS011;11418;48.118;9.992;2022-08-21T07:20:23;2.85;;;1.67;;
22502;SDS011;11418;48.118;9.992;2022-08-21T07:24:24;1.70;;;1.60;;
22502;SDS011;11418;48.118;9.992;2022-08-21T07:28:25;1.70;;;1.60;;
22502;SDS011;11418;48.118;9.992;2022-08-21T07:32:25;2.40;;;1.67;;
22502;SDS011;11418;48.118;9.992;2022-08-21T07:36:29;2.10;;;1.77;;
22502;SDS011;11418;48.118;9.992;2022-08-21T07:40:29;3.88;;;1.85;;
22502;SDS011;11418;48.118;9.992;2022-08-21T07:44:33;2.10;;;1.90;;
22502;SDS011;11418;48.118;9.992;2022-08-21T07:48:34;3.10;;;1.88;;
22502;SDS011;11418;48.118;9.992;2022-08-21T07:52:35;2.13;;;1.70;;
22502;SDS011;11418;48.118;9.992;2022-08-21T07:56:36;2.88;;;1.80;;
22502;SDS011;11418;48.118;9.992;2022-08-21T08:00:40;3.33;;;1.80;;
22502;SDS011;11418;48.118;9.992;2022-08-21T08:04:41;1.85;;;1.50;;
22502;SDS011;11418;48.118;9.992;2022-08-21T08:13:11;2.85;;;2.20;;
22502;SDS011;11418;48.118;9.992;2022-08-21T08:17:12;2.03;;;1.80;;
22502;SDS011;11418;48.118;9.992;2022-08-21T08:21:19;3.92;;;2.10;;
22502;SDS011;11418;48.118;9.992;2022-08-21T08:25:23;2.60;;;2.40;;
22502;SDS011;11418;48.118;9.992;2022-08-21T08:29:31;3.85;;;2.47;;
22502;SDS011;11418;48.118;9.992;2022-08-21T08:33:31;2.88;;;2.38;;
22502;SDS011;11418;48.118;9.992;2022-08-21T08:37:38;3.70;;;2.35;;
22502;SDS011;11418;48.118;9.992;2022-08-21T08:41:41;2.95;;;1.85;;
22502;SDS011;11418;48.118;9.992;2022-08-21T08:45:46;2.17;;;1.90;;
22502;SDS011;11418;48.118;9.992;2022-08-21T08:49:53;2.33;;;1.75;;
22502;SDS011;11418;48.118;9.992;2022-08-21T08:54:02;4.00;;;2.13;;
22502;SDS011;11418;48.118;9.992;2022-08-21T08:58:12;3.70;;;2.00;;
22502;SDS011;11418;48.118;9.992;2022-08-21T09:02:30;3.05;;;1.65;;
22502;SDS011;11418;48.118;9.992;2022-08-21T09:06:36;3.08;;;1.95;;
22502;SDS011;11418;48.118;9.992;2022-08-21T09:11:10;4.85;;;2.03;;
22502;SDS011;11418;48.118;9.992;2022-08-21T09:15:22;4.57;;;1.98;;
22502;SDS011;11418;48.118;9.992;2022-08-21T09:24:22;2.40;;;2.00;;
22502;SDS011;11418;48.118;9.992;2022-08-21T09:28:34;5.32;;;2.15;;
22502;SDS011;11418;48.118;9.992;2022-08-21T09:32:36;5.18;;;1.80;;
22502;SDS011;11418;48.118;9.992;2022-08-21T09:36:44;4.72;;;2.08;;
22502;SDS011;11418;48.118;9.992;2022-08-21T09:40:54;3.63;;;2.08;;
22502;SDS011;11418;48.118;9.992;2022-08-21T09:49:26;4.18;;;2.40;;
22502;SDS011;11418;48.118;9.992;2022-08-21T09:53:28;4.72;;;2.38;;
22502;SDS011;11418;48.118;9.992;2022-08-21T09:57:31;8.40;;;4.40;;
22502;SDS011;11418;48.118;9.992;2022-08-21T10:01:49;4.47;;;2.20;;
22502;SDS011;11418;48.118;9.992;2022-08-21T10:05:53;4.03;;;2.40;;
22502;SDS011;11418;48.118;9.992;2022-08-21T10:10:01;3.60;;;2.10;;
22502;SDS011;11418;48.118;9.992;2022-08-21T10:22:42;5.90;;;2.50;;
22502;SDS011;11418;48.118;9.992;2022-08-21T10:36:17;3.25;;;2.25;;
22502;SDS011;11418;48.118;9.992;2022-08-21T10:40:31;5.47;;;2.40;;
22502;SDS011;11418;48.118;9.992;2022-08-21T10:44:55;3.90;;;2.00;;
22502;SDS011;11418;48.118;9.992;2022-08-21T10:49:14;2.85;;;2.10;;
22502;SDS011;11418;48.118;9.992;2022-08-21T11:05:51;3.42;;;2.10;;
22502;SDS011;11418;48.118;9.992;2022-08-21T11:09:55;4.15;;;2.10;;
22502;SDS011;11418;48.118;9.992;2022-08-21T11:14:01;4.82;;;2.20;;
22502;SDS011;11418;48.118;9.992;2022-08-21T11:22:38;2.20;;;1.67;;
22502;SDS011;11418;48.118;9.992;2022-08-21T11:31:40;3.90;;;2.08;;
22502;SDS011;11418;48.118;9.992;2022-08-21T11:35:54;5.50;;;2.17;;
22502;SDS011;11418;48.118;9.992;2022-08-21T11:49:17;3.15;;;2.10;;
22502;SDS011;11418;48.118;9.992;2022-08-21T11:58:30;3.15;;;1.70;;
22502;SDS011;11418;48.118;9.992;2022-08-21T12:02:44;3.90;;;2.15;;
22502;SDS011;11418;48.118;9.992;2022-08-21T12:06:48;2.83;;;1.95;;
22502;SDS011;11418;48.118;9.992;2022-08-21T12:10:59;4.57;;;1.90;;
22502;SDS011;11418;48.118;9.992;2022-08-21T12:15:11;4.53;;;2.13;;
22502;SDS011;11418;48.118;9.992;2022-08-21T12:23:27;4.90;;;1.95;;
22502;SDS011;11418;48.118;9.992;2022-08-21T12:27:51;3.90;;;2.13;;
22502;SDS011;11418;48.118;9.992;2022-08-21T12:31:56;2.22;;;1.52;;
22502;SDS011;11418;48.118;9.992;2022-08-21T12:36:09;2.90;;;1.60;;
22502;SDS011;11418;48.118;9.992;2022-08-21T12:44:28;3.42;;;2.15;;
22502;SDS011;11418;48.118;9.992;2022-08-21T12:48:47;2.55;;;1.90;;
22502;SDS011;11418;48.118;9.992;2022-08-21T12:52:56;1.90;;;1.52;;
22502;SDS011;11418;48.118;9.992;2022-08-21T12:57:05;3.50;;;1.75;;
22502;SDS011;11418;48.118;9.992;2022-08-21T13:01:08;1.95;;;1.75;;
22502;SDS011;11418;48.118;9.992;2022-08-21T13:05:42;2.17;;;1.67;;
22502;SDS011;11418;48.118;9.992;2022-08-21T13:09:44;3.03;;;1.60;;
22502;SDS011;11418;48.118;9.992;2022-08-21T13:13:49;4.45;;;1.33;;
22502;SDS011;11418;48.118;9.992;2022-08-21T13:17:51;1.92;;;1.42;;
22502;SDS011;11418;48.118;9.992;2022-08-21T13:21:52;2.08;;;1.35;;
22502;SDS011;11418;48.118;9.992;2022-08-21T13:25:53;1.60;;;1.30;;
22502;SDS011;11418;48.118;9.992;2022-08-21T13:30:08;3.38;;;2.08;;
22502;SDS011;11418;48.118;9.992;2022-08-21T13:34:12;1.92;;;1.35;;
22502;SDS011;11418;48.118;9.992;2022-08-21T13:38:15;3.22;;;1.50;;
22502;SDS011;11418;48.118;9.992;2022-08-21T13:42:21;2.08;;;1.60;;
22502;SDS011;11418;48.118;9.992;2022-08-21T13:46:24;2.28;;;1.55;;
22502;SDS011;11418;48.118;9.992;2022-08-21T13:50:28;2.05;;;1.63;;
22502;SDS011;11418;48.118;9.992;2022-08-21T13:54:37;3.47;;;1.77;;
22502;SDS011;11418;48.118;9.992;2022-08-21T13:58:44;1.63;;;1.48;;
22502;SDS011;11418;48.118;9.992;2022-08-21T14:02:47;1.58;;;1.38;;
22502;SDS011;11418;48.118;9.992;2022-08-21T14:06:51;1.30;;;1.20;;
22502;SDS011;11418;48.118;9.992;2022-08-21T14:10:53;6.93;;;1.65;;
22502;SDS011;11418;48.118;9.992;2022-08-21T14:14:54;4.55;;;1.90;;
22502;SDS011;11418;48.118;9.992;2022-08-21T14:22:59;2.92;;;1.63;;
22502;SDS011;11418;48.118;9.992;2022-08-21T14:27:02;2.22;;;1.77;;
22502;SDS011;11418;48.118;9.992;2022-08-21T14:31:12;1.88;;;1.60;;
22502;SDS011;11418;48.118;9.992;2022-08-21T14:35:15;3.40;;;1.90;;
22502;SDS011;11418;48.118;9.992;2022-08-21T14:39:17;2.20;;;1.40;;
22502;SDS011;11418;48.118;9.992;2022-08-21T14:43:19;2.13;;;1.80;;
22502;SDS011;11418;48.118;9.992;2022-08-21T14:47:20;1.98;;;1.77;;
22502;SDS011;11418;48.118;9.992;2022-08-21T14:51:21;4.18;;;1.63;;
22502;SDS011;11418;48.118;9.992;2022-08-21T14:55:22;3.10;;;1.98;;
22502;SDS011;11418;48.118;9.992;2022-08-21T14:59:23;2.95;;;1.88;;
22502;SDS011;11418;48.118;9.992;2022-08-21T15:03:25;3.58;;;1.80;;
22502;SDS011;11418;48.118;9.992;2022-08-21T15:07:26;3.17;;;1.60;;
22502;SDS011;11418;48.118;9.992;2022-08-21T15:11:26;2.22;;;1.70;;
22502;SDS011;11418;48.118;9.992;2022-08-21T15:15:28;3.67;;;1.83;;
22502;SDS011;11418;48.118;9.992;2022-08-21T15:19:49;1.73;;;1.50;;
22502;SDS011;11418;48.118;9.992;2022-08-21T15:23:50;3.28;;;1.73;;
22502;SDS011;11418;48.118;9.992;2022-08-21T15:27:51;2.17;;;1.70;;
22502;SDS011;11418;48.118;9.992;2022-08-21T15:31:54;1.88;;;1.50;;
22502;SDS011;11418;48.118;9.992;2022-08-21T15:35:56;3.65;;;1.80;;
22502;SDS011;11418;48.118;9.992;2022-08-21T15:39:57;3.28;;;1.55;;
22502;SDS011;11418;48.118;9.992;2022-08-21T15:43:58;3.53;;;1.80;;
22502;SDS011;11418;48.118;9.992;2022-08-21T15:47:58;4.38;;;1.50;;
22502;SDS011;11418;48.118;9.992;2022-08-21T15:51:59;2.90;;;1.60;;
22502;SDS011;11418;48.118;9.992;2022-08-21T15:56:00;2.65;;;1.58;;
22502;SDS011;11418;48.118;9.992;2022-08-21T16:00:21;3.45;;;1.88;;
22502;SDS011;11418;48.118;9.992;2022-08-21T16:04:24;3.55;;;1.75;;
22502;SDS011;11418;48.118;9.992;2022-08-21T16:08:26;3.67;;;1.75;;
22502;SDS011;11418;48.118;9.992;2022-08-21T16:12:28;2.20;;;1.80;;
22502;SDS011;11418;48.118;9.992;2022-08-21T16:16:31;2.63;;;1.58;;
22502;SDS011;11418;48.118;9.992;2022-08-21T16:20:34;1.90;;;1.60;;
22502;SDS011;11418;48.118;9.992;2022-08-21T16:24:34;4.85;;;1.90;;
22502;SDS011;11418;48.118;9.992;2022-08-21T16:28:36;2.47;;;1.70;;
22502;SDS011;11418;48.118;9.992;2022-08-21T16:32:38;2.17;;;1.70;;
22502;SDS011;11418;48.118;9.992;2022-08-21T16:36:39;2.83;;;2.08;;
22502;SDS011;11418;48.118;9.992;2022-08-21T16:40:40;2.92;;;1.90;;
22502;SDS011;11418;48.118;9.992;2022-08-21T16:44:41;2.80;;;1.70;;
22502;SDS011;11418;48.118;9.992;2022-08-21T16:48:42;1.75;;;1.50;;
22502;SDS011;11418;48.118;9.992;2022-08-21T16:52:46;2.78;;;1.60;;
22502;SDS011;11418;48.118;9.992;2022-08-21T16:56:46;3.17;;;1.67;;
22502;SDS011;11418;48.118;9.992;2022-08-21T17:00:47;2.22;;;1.70;;
22502;SDS011;11418;48.118;9.992;2022-08-21T17:04:48;2.45;;;1.80;;
22502;SDS011;11418;48.118;9.992;2022-08-21T17:08:49;3.63;;;1.90;;
22502;SDS011;11418;48.118;9.992;2022-08-21T17:12:52;4.07;;;1.83;;
22502;SDS011;11418;48.118;9.992;2022-08-21T17:16:55;3.00;;;2.10;;
22502;SDS011;11418;48.118;9.992;2022-08-21T17:20:56;5.43;;;1.90;;
22502;SDS011;11418;48.118;9.992;2022-08-21T17:24:56;2.13;;;1.80;;
22502;SDS011;11418;48.118;9.992;2022-08-21T17:28:57;2.83;;;1.90;;
22502;SDS011;11418;48.118;9.992;2022-08-21T17:32:58;2.70;;;1.83;;
22502;SDS011;11418;48.118;9.992;2022-08-21T17:37:00;1.85;;;1.75;;
22502;SDS011;11418;48.118;9.992;2022-08-21T17:41:00;2.65;;;1.77;;
22502;SDS011;11418;48.118;9.992;2022-08-21T17:45:02;2.50;;;2.03;;
22502;SDS011;11418;48.118;9.992;2022-08-21T17:49:07;3.15;;;1.77;;
22502;SDS011;11418;48.118;9.992;2022-08-21T17:53:08;3.13;;;1.88;;
22502;SDS011;11418;48.118;9.992;2022-08-21T17:57:17;3.55;;;2.10;;
22502;SDS011;11418;48.118;9.992;2022-08-21T18:01:20;3.17;;;2.00;;
22502;SDS011;11418;48.118;9.992;2022-08-21T18:05:21;4.13;;;2.47;;
22502;SDS011;11418;48.118;9.992;2022-08-21T18:09:22;4.10;;;2.97;;
22502;SDS011;11418;48.118;9.992;2022-08-21T18:13:28;4.38;;;3.28;;
22502;SDS011;11418;48.118;9.992;2022-08-21T18:17:32;5.55;;;3.50;;
22502;SDS011;11418;48.118;9.992;2022-08-21T18:21:36;5.10;;;3.20;;
22502;SDS011;11418;48.118;9.992;2022-08-21T18:25:36;7.93;;;3.85;;
22502;SDS011;11418;48.118;9.992;2022-08-21T18:29:38;4.68;;;3.58;;
22502;SDS011;11418;48.118;9.992;2022-08-21T18:33:39;7.15;;;3.70;;
22502;SDS011;11418;48.118;9.992;2022-08-21T18:37:41;4.57;;;2.75;;
22502;SDS011;11418;48.118;9.992;2022-08-21T18:41:53;3.50;;;2.88;;
22502;SDS011;11418;48.118;9.992;2022-08-21T18:45:54;4.53;;;2.92;;
22502;SDS011;11418;48.118;9.992;2022-08-21T18:49:55;4.57;;;3.28;;
22502;SDS011;11418;48.118;9.992;2022-08-21T18:53:55;4.07;;;3.13;;
22502;SDS011;11418;48.118;9.992;2022-08-21T18:57:56;6.82;;;3.53;;
22502;SDS011;11418;48.118;9.992;2022-08-21T19:01:57;3.95;;;3.35;;
22502;SDS011;11418;48.118;9.992;2022-08-21T19:06:01;8.88;;;2.80;;
22502;SDS011;11418;48.118;9.992;2022-08-21T19:10:03;4.40;;;2.80;;
22502;SDS011;11418;48.118;9.992;2022-08-21T19:14:06;3.88;;;3.30;;
22502;SDS011;11418;48.118;9.992;2022-08-21T19:18:10;5.63;;;3.38;;
22502;SDS011;11418;48.118;9.992;2022-08-21T19:22:12;4.85;;;3.38;;
22502;SDS011;11418;48.118;9.992;2022-08-21T19:26:13;4.32;;;2.70;;
22502;SDS011;11418;48.118;9.992;2022-08-21T19:30:15;3.53;;;2.97;;
22502;SDS011;11418;48.118;9.992;2022-08-21T19:34:18;3.53;;;2.60;;
22502;SDS011;11418;48.118;9.992;2022-08-21T19:38:21;3.75;;;2.90;;
22502;SDS011;11418;48.118;9.992;2022-08-21T19:42:22;4.10;;;2.55;;
22502;SDS011;11418;48.118;9.992;2022-08-21T19:46:26;4.13;;;2.85;;
22502;SDS011;11418;48.118;9.992;2022-08-21T19:50:32;5.03;;;2.60;;
22502;SDS011;11418;48.118;9.992;2022-08-21T19:54:33;3.65;;;2.55;;
22502;SDS011;11418;48.118;9.992;2022-08-21T19:58:34;4.55;;;3.10;;
22502;SDS011;11418;48.118;9.992;2022-08-21T20:02:37;4.78;;;3.08;;
22502;SDS011;11418;48.118;9.992;2022-08-21T20:06:38;3.00;;;2.70;;
22502;SDS011;11418;48.118;9.992;2022-08-21T20:10:40;3.47;;;2.70;;
22502;SDS011;11418;48.118;9.992;2022-08-21T20:14:43;5.97;;;3.70;;
22502;SDS011;11418;48.118;9.992;2022-08-21T20:18:45;4.05;;;3.20;;
22502;SDS011;11418;48.118;9.992;2022-08-21T20:22:47;3.58;;;3.17;;
22502;SDS011;11418;48.118;9.992;2022-08-21T20:26:48;3.92;;;3.22;;
22502;SDS011;11418;48.118;9.992;2022-08-21T20:30:49;6.15;;;3.20;;
22502;SDS011;11418;48.118;9.992;2022-08-21T20:34:50;4.05;;;3.55;;
22502;SDS011;11418;48.118;9.992;2022-08-21T20:38:51;3.97;;;2.80;;
22502;SDS011;11418;48.118;9.992;2022-08-21T20:42:53;4.10;;;3.10;;
22502;SDS011;11418;48.118;9.992;2022-08-21T20:46:54;5.05;;;3.55;;
22502;SDS011;11418;48.118;9.992;2022-08-21T20:55:09;4.20;;;3.20;;
22502;SDS011;11418;48.118;9.992;2022-08-21T21:00:00;5.03;;;3.83;;
22502;SDS011;11418;48.118;9.992;2022-08-21T21:03:35;6.78;;;3.58;;
22502;SDS011;11418;48.118;9.992;2022-08-21T21:16:07;6.55;;;3.08;;
22502;SDS011;11418;48.118;9.992;2022-08-21T21:20:18;5.00;;;3.33;;
22502;SDS011;11418;48.118;9.992;2022-08-21T21:28:34;4.63;;;3.78;;
22502;SDS011;11418;48.118;9.992;2022-08-21T21:32:54;4.82;;;3.92;;
22502;SDS011;11418;48.118;9.992;2022-08-21T21:36:56;4.55;;;3.63;;
22502;SDS011;11418;48.118;9.992;2022-08-21T21:41:20;6.60;;;3.90;;
22502;SDS011;11418;48.118;9.992;2022-08-21T21:45:33;5.53;;;3.90;;
22502;SDS011;11418;48.118;9.992;2022-08-21T22:02:49;5.13;;;3.60;;
22502;SDS011;11418;48.118;9.992;2022-08-21T22:07:00;5.32;;;4.15;;
22502;SDS011;11418;48.118;9.992;2022-08-21T22:15:39;4.68;;;3.63;;
22502;SDS011;11418;48.118;9.992;2022-08-21T22:19:41;5.18;;;3.45;;
22502;SDS011;11418;48.118;9.992;2022-08-21T22:23:46;5.80;;;3.58;;
22502;SDS011;11418;48.118;9.992;2022-08-21T22:27:52;5.22;;;3.63;;
22502;SDS011;11418;48.118;9.992;2022-08-21T22:32:08;5.00;;;3.35;;
22502;SDS011;11418;48.118;9.992;2022-08-21T22:36:17;5.18;;;4.15;;
22502;SDS011;11418;48.118;9.992;2022-08-21T22:40:21;6.63;;;4.70;;
22502;SDS011;11418;48.118;9.992;2022-08-21T22:44:27;22.42;;;19.38;;
22502;SDS011;11418;48.118;9.992;2022-08-21T22:48:32;20.15;;;17.02;;
22502;SDS011;11418;48.118;9.992;2022-08-21T22:52:36;7.97;;;6.18;;
22502;SDS011;11418;48.118;9.992;2022-08-21T22:56:44;5.22;;;4.25;;
22502;SDS011;11418;48.118;9.992;2022-08-21T23:05:49;5.93;;;4.00;;
22502;SDS011;11418;48.118;9.992;2022-08-21T23:09:40;5.93;;;4.53;;
22502;SDS011;11418;48.118;9.992;2022-08-21T23:13:48;5.80;;;4.35;;
22502;SDS011;11418;48.118;9.992;2022-08-21T23:18:00;4.88;;;3.75;;
22502;SDS011;11418;48.118;9.992;2022-08-21T23:26:37;6.20;;;3.85;;
22502;SDS011;11418;48.118;9.992;2022-08-21T23:39:48;5.70;;;4.30;;
22502;SDS011;11418;48.118;9.992;2022-08-21T23:43:51;4.75;;;3.90;;
22502;SDS011;11418;48.118;9.992;2022-08-21T23:57:19;4.88;;;3.70;;
